sensor_id;sensor_type;location;lat;lon;timestamp;temperature;humidity
40287;DHT22;25998;46.604;13.610;2022-07-15T00:00:14;20.80;95.00
40287;DHT22;25998;46.604;13.610;2022-07-15T00:03:25;20.80;94.90
40287;DHT22;25998;46.604;13.610;2022-07-15T00:06:36;20.80;95.00
40287;DHT22;25998;46.604;13.610;2022-07-15T00:09:47;20.50;95.50
40287;DHT22;25998;46.604;13.610;2022-07-15T00:13:16;20.40;95.80
40287;DHT22;25998;46.604;13.610;2022-07-15T00:16:27;20.30;96.10
40287;DHT22;25998;46.604;13.610;2022-07-15T00:19:38;20.20;96.50
40287;DHT22;25998;46.604;13.610;2022-07-15T00:22:49;20.20;96.40
40287;DHT22;25998;46.604;13.610;2022-07-15T00:26:00;20.20;96.50
40287;DHT22;25998;46.604;13.610;2022-07-15T00:29:11;20.30;96.30
40287;DHT22;25998;46.604;13.610;2022-07-15T00:32:22;20.30;96.30
40287;DHT22;25998;46.604;13.610;2022-07-15T00:35:35;20.40;96.10
40287;DHT22;25998;46.604;13.610;2022-07-15T00:38:46;20.40;96.20
40287;DHT22;25998;46.604;13.610;2022-07-15T00:41:57;20.50;96.20
40287;DHT22;25998;46.604;13.610;2022-07-15T00:45:13;20.50;96.30
40287;DHT22;25998;46.604;13.610;2022-07-15T00:48:24;20.30;96.70
40287;DHT22;25998;46.604;13.610;2022-07-15T00:51:43;20.40;96.70
40287;DHT22;25998;46.604;13.610;2022-07-15T00:54:57;20.60;96.40
40287;DHT22;25998;46.604;13.610;2022-07-15T00:58:14;20.80;95.90
40287;DHT22;25998;46.604;13.610;2022-07-15T01:01:26;20.90;95.80
40287;DHT22;25998;46.604;13.610;2022-07-15T01:04:38;21.00;95.70
40287;DHT22;25998;46.604;13.610;2022-07-15T01:07:50;20.80;96.00
40287;DHT22;25998;46.604;13.610;2022-07-15T01:11:01;20.50;96.60
40287;DHT22;25998;46.604;13.610;2022-07-15T01:14:12;20.30;96.80
40287;DHT22;25998;46.604;13.610;2022-07-15T01:17:24;20.10;97.10
40287;DHT22;25998;46.604;13.610;2022-07-15T01:20:40;20.00;97.40
40287;DHT22;25998;46.604;13.610;2022-07-15T01:23:54;20.10;97.40
40287;DHT22;25998;46.604;13.610;2022-07-15T01:27:04;20.20;97.30
40287;DHT22;25998;46.604;13.610;2022-07-15T01:30:15;20.20;97.20
40287;DHT22;25998;46.604;13.610;2022-07-15T01:33:27;20.20;97.20
40287;DHT22;25998;46.604;13.610;2022-07-15T01:36:38;20.20;97.30
40287;DHT22;25998;46.604;13.610;2022-07-15T01:39:48;20.00;97.90
40287;DHT22;25998;46.604;13.610;2022-07-15T01:42:59;19.80;98.20
40287;DHT22;25998;46.604;13.610;2022-07-15T01:46:10;19.80;98.50
40287;DHT22;25998;46.604;13.610;2022-07-15T01:49:21;19.80;98.80
40287;DHT22;25998;46.604;13.610;2022-07-15T01:52:32;19.90;98.20
40287;DHT22;25998;46.604;13.610;2022-07-15T01:55:43;19.80;98.50
40287;DHT22;25998;46.604;13.610;2022-07-15T01:58:54;19.80;98.60
40287;DHT22;25998;46.604;13.610;2022-07-15T02:02:04;19.70;98.90
40287;DHT22;25998;46.604;13.610;2022-07-15T02:05:15;19.80;99.00
40287;DHT22;25998;46.604;13.610;2022-07-15T02:08:26;19.70;99.30
40287;DHT22;25998;46.604;13.610;2022-07-15T02:11:37;19.90;98.90
40287;DHT22;25998;46.604;13.610;2022-07-15T02:14:48;19.80;99.00
40287;DHT22;25998;46.604;13.610;2022-07-15T02:18:00;19.60;99.40
40287;DHT22;25998;46.604;13.610;2022-07-15T02:21:11;19.60;99.50
40287;DHT22;25998;46.604;13.610;2022-07-15T02:24:21;19.60;99.60
40287;DHT22;25998;46.604;13.610;2022-07-15T02:27:32;19.60;99.60
40287;DHT22;25998;46.604;13.610;2022-07-15T02:30:43;19.50;99.90
40287;DHT22;25998;46.604;13.610;2022-07-15T02:33:54;19.60;99.80
40287;DHT22;25998;46.604;13.610;2022-07-15T02:37:05;19.70;99.60
40287;DHT22;25998;46.604;13.610;2022-07-15T02:40:17;19.50;99.90
40287;DHT22;25998;46.604;13.610;2022-07-15T02:43:28;19.40;99.90
40287;DHT22;25998;46.604;13.610;2022-07-15T02:46:39;19.30;99.90
40287;DHT22;25998;46.604;13.610;2022-07-15T02:49:49;19.30;99.90
40287;DHT22;25998;46.604;13.610;2022-07-15T02:53:02;19.40;99.90
40287;DHT22;25998;46.604;13.610;2022-07-15T02:56:13;19.60;99.90
40287;DHT22;25998;46.604;13.610;2022-07-15T02:59:24;19.80;99.90
40287;DHT22;25998;46.604;13.610;2022-07-15T03:02:35;19.80;99.70
40287;DHT22;25998;46.604;13.610;2022-07-15T03:05:46;19.70;99.80
40287;DHT22;25998;46.604;13.610;2022-07-15T03:08:57;19.80;99.90
40287;DHT22;25998;46.604;13.610;2022-07-15T03:12:07;19.40;99.90
40287;DHT22;25998;46.604;13.610;2022-07-15T03:15:18;19.30;99.90
40287;DHT22;25998;46.604;13.610;2022-07-15T03:18:29;19.40;99.90
40287;DHT22;25998;46.604;13.610;2022-07-15T03:21:42;19.10;99.90
40287;DHT22;25998;46.604;13.610;2022-07-15T03:24:53;18.90;99.90
40287;DHT22;25998;46.604;13.610;2022-07-15T03:28:04;18.80;99.90
40287;DHT22;25998;46.604;13.610;2022-07-15T03:31:16;18.70;99.90
40287;DHT22;25998;46.604;13.610;2022-07-15T03:34:27;18.70;99.90
40287;DHT22;25998;46.604;13.610;2022-07-15T03:37:38;18.80;99.90
40287;DHT22;25998;46.604;13.610;2022-07-15T03:40:49;19.00;99.90
40287;DHT22;25998;46.604;13.610;2022-07-15T03:44:01;19.20;99.90
40287;DHT22;25998;46.604;13.610;2022-07-15T03:47:13;19.10;99.90
40287;DHT22;25998;46.604;13.610;2022-07-15T03:50:23;18.90;99.90
40287;DHT22;25998;46.604;13.610;2022-07-15T03:53:34;18.80;99.90
40287;DHT22;25998;46.604;13.610;2022-07-15T03:56:45;18.80;99.90
40287;DHT22;25998;46.604;13.610;2022-07-15T03:59:58;18.80;99.90
40287;DHT22;25998;46.604;13.610;2022-07-15T04:03:09;18.80;99.90
40287;DHT22;25998;46.604;13.610;2022-07-15T04:06:21;18.80;99.90
40287;DHT22;25998;46.604;13.610;2022-07-15T04:09:32;19.00;99.90
40287;DHT22;25998;46.604;13.610;2022-07-15T04:12:43;19.20;99.90
40287;DHT22;25998;46.604;13.610;2022-07-15T04:15:54;19.20;99.90
40287;DHT22;25998;46.604;13.610;2022-07-15T04:19:05;19.30;99.90
40287;DHT22;25998;46.604;13.610;2022-07-15T04:22:15;19.30;99.90
40287;DHT22;25998;46.604;13.610;2022-07-15T04:25:27;19.10;99.90
40287;DHT22;25998;46.604;13.610;2022-07-15T04:28:38;19.10;99.90
40287;DHT22;25998;46.604;13.610;2022-07-15T04:31:48;19.00;99.90
40287;DHT22;25998;46.604;13.610;2022-07-15T04:34:59;18.80;99.90
40287;DHT22;25998;46.604;13.610;2022-07-15T04:38:10;18.70;99.90
40287;DHT22;25998;46.604;13.610;2022-07-15T04:41:21;18.70;99.90
40287;DHT22;25998;46.604;13.610;2022-07-15T04:44:32;18.80;99.90
40287;DHT22;25998;46.604;13.610;2022-07-15T04:47:43;18.80;99.90
40287;DHT22;25998;46.604;13.610;2022-07-15T04:50:54;18.80;99.90
40287;DHT22;25998;46.604;13.610;2022-07-15T04:54:09;18.80;99.90
40287;DHT22;25998;46.604;13.610;2022-07-15T04:57:20;18.80;99.90
40287;DHT22;25998;46.604;13.610;2022-07-15T05:00:31;18.80;99.90
40287;DHT22;25998;46.604;13.610;2022-07-15T05:03:42;18.80;99.90
40287;DHT22;25998;46.604;13.610;2022-07-15T05:06:53;18.80;99.90
40287;DHT22;25998;46.604;13.610;2022-07-15T05:10:05;18.80;99.90
40287;DHT22;25998;46.604;13.610;2022-07-15T05:13:16;18.90;99.90
40287;DHT22;25998;46.604;13.610;2022-07-15T05:16:27;19.00;99.90
40287;DHT22;25998;46.604;13.610;2022-07-15T05:19:38;19.10;99.90
40287;DHT22;25998;46.604;13.610;2022-07-15T05:22:49;19.20;99.90
40287;DHT22;25998;46.604;13.610;2022-07-15T05:26:00;19.20;99.90
40287;DHT22;25998;46.604;13.610;2022-07-15T05:29:12;19.20;99.90
40287;DHT22;25998;46.604;13.610;2022-07-15T05:32:23;19.00;99.90
40287;DHT22;25998;46.604;13.610;2022-07-15T05:35:34;19.20;99.90
40287;DHT22;25998;46.604;13.610;2022-07-15T05:38:45;19.50;99.90
40287;DHT22;25998;46.604;13.610;2022-07-15T05:41:56;19.40;99.90
40287;DHT22;25998;46.604;13.610;2022-07-15T05:45:09;19.20;99.90
40287;DHT22;25998;46.604;13.610;2022-07-15T05:48:20;19.30;99.90
40287;DHT22;25998;46.604;13.610;2022-07-15T05:51:31;19.50;99.90
40287;DHT22;25998;46.604;13.610;2022-07-15T05:54:42;19.60;99.90
40287;DHT22;25998;46.604;13.610;2022-07-15T05:57:53;19.60;99.90
40287;DHT22;25998;46.604;13.610;2022-07-15T06:01:04;20.10;99.90
40287;DHT22;25998;46.604;13.610;2022-07-15T06:04:16;20.60;99.90
40287;DHT22;25998;46.604;13.610;2022-07-15T06:07:26;20.50;99.90
40287;DHT22;25998;46.604;13.610;2022-07-15T06:10:37;20.30;99.90
40287;DHT22;25998;46.604;13.610;2022-07-15T06:13:48;20.10;99.90
40287;DHT22;25998;46.604;13.610;2022-07-15T06:16:59;20.60;99.90
40287;DHT22;25998;46.604;13.610;2022-07-15T06:20:11;21.40;99.90
40287;DHT22;25998;46.604;13.610;2022-07-15T06:23:22;22.20;99.90
40287;DHT22;25998;46.604;13.610;2022-07-15T06:26:33;23.00;99.30
40287;DHT22;25998;46.604;13.610;2022-07-15T06:29:44;23.80;98.00
40287;DHT22;25998;46.604;13.610;2022-07-15T06:32:55;24.30;97.80
40287;DHT22;25998;46.604;13.610;2022-07-15T06:36:06;24.20;96.90
40287;DHT22;25998;46.604;13.610;2022-07-15T06:39:17;23.80;97.30
40287;DHT22;25998;46.604;13.610;2022-07-15T06:42:28;23.20;98.20
40287;DHT22;25998;46.604;13.610;2022-07-15T06:45:39;23.10;99.10
40287;DHT22;25998;46.604;13.610;2022-07-15T06:48:49;23.00;99.30
40287;DHT22;25998;46.604;13.610;2022-07-15T06:52:01;23.00;99.70
40287;DHT22;25998;46.604;13.610;2022-07-15T06:55:12;23.00;99.30
40287;DHT22;25998;46.604;13.610;2022-07-15T06:58:23;23.30;98.50
40287;DHT22;25998;46.604;13.610;2022-07-15T07:01:34;23.90;98.60
40287;DHT22;25998;46.604;13.610;2022-07-15T07:04:45;24.40;97.80
40287;DHT22;25998;46.604;13.610;2022-07-15T07:07:56;25.00;96.90
40287;DHT22;25998;46.604;13.610;2022-07-15T07:11:11;25.40;96.20
40287;DHT22;25998;46.604;13.610;2022-07-15T07:14:21;25.70;96.30
40287;DHT22;25998;46.604;13.610;2022-07-15T07:17:32;25.70;96.30
40287;DHT22;25998;46.604;13.610;2022-07-15T07:20:43;25.80;95.60
40287;DHT22;25998;46.604;13.610;2022-07-15T07:23:54;25.60;94.80
40287;DHT22;25998;46.604;13.610;2022-07-15T07:27:05;26.00;94.30
40287;DHT22;25998;46.604;13.610;2022-07-15T07:30:17;26.20;94.60
40287;DHT22;25998;46.604;13.610;2022-07-15T07:33:27;26.90;92.90
40287;DHT22;25998;46.604;13.610;2022-07-15T07:36:38;27.50;92.80
40287;DHT22;25998;46.604;13.610;2022-07-15T07:39:49;27.90;92.20
40287;DHT22;25998;46.604;13.610;2022-07-15T07:43:00;27.80;92.70
40287;DHT22;25998;46.604;13.610;2022-07-15T07:46:12;27.90;92.60
40287;DHT22;25998;46.604;13.610;2022-07-15T07:49:23;27.40;92.10
40287;DHT22;25998;46.604;13.610;2022-07-15T07:52:37;26.80;92.10
40287;DHT22;25998;46.604;13.610;2022-07-15T07:55:49;26.40;92.40
40287;DHT22;25998;46.604;13.610;2022-07-15T07:59:00;26.90;92.30
40287;DHT22;25998;46.604;13.610;2022-07-15T08:02:10;27.20;91.50
40287;DHT22;25998;46.604;13.610;2022-07-15T08:05:22;27.40;91.80
40287;DHT22;25998;46.604;13.610;2022-07-15T08:08:33;27.50;90.70
40287;DHT22;25998;46.604;13.610;2022-07-15T08:11:43;27.70;90.50
40287;DHT22;25998;46.604;13.610;2022-07-15T08:14:55;28.10;91.20
40287;DHT22;25998;46.604;13.610;2022-07-15T08:18:06;28.50;91.10
40287;DHT22;25998;46.604;13.610;2022-07-15T08:21:18;29.00;91.40
40287;DHT22;25998;46.604;13.610;2022-07-15T08:24:31;29.00;90.10
40287;DHT22;25998;46.604;13.610;2022-07-15T08:27:44;29.00;90.40
40287;DHT22;25998;46.604;13.610;2022-07-15T08:30:55;29.00;89.00
40287;DHT22;25998;46.604;13.610;2022-07-15T08:34:06;29.00;89.80
40287;DHT22;25998;46.604;13.610;2022-07-15T08:37:18;28.60;88.20
40287;DHT22;25998;46.604;13.610;2022-07-15T08:40:29;27.90;90.10
40287;DHT22;25998;46.604;13.610;2022-07-15T08:43:40;27.60;90.40
40287;DHT22;25998;46.604;13.610;2022-07-15T08:46:54;27.70;90.50
40287;DHT22;25998;46.604;13.610;2022-07-15T08:50:06;28.10;90.50
40287;DHT22;25998;46.604;13.610;2022-07-15T08:53:18;28.30;90.10
40287;DHT22;25998;46.604;13.610;2022-07-15T08:56:32;28.60;90.00
40287;DHT22;25998;46.604;13.610;2022-07-15T08:59:45;29.10;88.30
40287;DHT22;25998;46.604;13.610;2022-07-15T09:02:58;29.20;87.90
40287;DHT22;25998;46.604;13.610;2022-07-15T09:06:36;29.30;89.30
40287;DHT22;25998;46.604;13.610;2022-07-15T09:09:47;29.50;88.30
40287;DHT22;25998;46.604;13.610;2022-07-15T09:12:58;29.90;87.50
40287;DHT22;25998;46.604;13.610;2022-07-15T09:16:12;29.80;88.80
40287;DHT22;25998;46.604;13.610;2022-07-15T09:19:30;30.40;88.30
40287;DHT22;25998;46.604;13.610;2022-07-15T09:23:00;30.40;87.30
40287;DHT22;25998;46.604;13.610;2022-07-15T09:26:31;30.10;86.30
40287;DHT22;25998;46.604;13.610;2022-07-15T09:29:49;29.80;85.80
40287;DHT22;25998;46.604;13.610;2022-07-15T09:33:21;29.60;90.10
40287;DHT22;25998;46.604;13.610;2022-07-15T09:36:51;30.10;88.10
40287;DHT22;25998;46.604;13.610;2022-07-15T09:40:05;30.20;87.30
40287;DHT22;25998;46.604;13.610;2022-07-15T09:43:16;30.50;86.80
40287;DHT22;25998;46.604;13.610;2022-07-15T09:46:44;31.10;86.50
40287;DHT22;25998;46.604;13.610;2022-07-15T09:49:55;31.10;84.60
40287;DHT22;25998;46.604;13.610;2022-07-15T09:53:14;31.30;84.60
40287;DHT22;25998;46.604;13.610;2022-07-15T09:56:25;31.00;83.60
40287;DHT22;25998;46.604;13.610;2022-07-15T09:59:36;31.30;83.20
40287;DHT22;25998;46.604;13.610;2022-07-15T10:02:47;31.10;83.90
40287;DHT22;25998;46.604;13.610;2022-07-15T10:06:00;30.90;84.00
40287;DHT22;25998;46.604;13.610;2022-07-15T10:09:12;30.90;82.60
40287;DHT22;25998;46.604;13.610;2022-07-15T10:12:25;31.40;85.20
40287;DHT22;25998;46.604;13.610;2022-07-15T10:15:46;31.30;81.80
40287;DHT22;25998;46.604;13.610;2022-07-15T10:19:40;31.60;80.50
40287;DHT22;25998;46.604;13.610;2022-07-15T10:29:44;31.80;81.00
40287;DHT22;25998;46.604;13.610;2022-07-15T10:33:16;31.70;80.90
40287;DHT22;25998;46.604;13.610;2022-07-15T10:39:59;31.70;79.30
40287;DHT22;25998;46.604;13.610;2022-07-15T10:43:16;31.60;80.80
40287;DHT22;25998;46.604;13.610;2022-07-15T10:46:29;31.20;80.10
40287;DHT22;25998;46.604;13.610;2022-07-15T10:49:41;31.50;79.50
40287;DHT22;25998;46.604;13.610;2022-07-15T10:53:16;32.00;80.20
40287;DHT22;25998;46.604;13.610;2022-07-15T10:56:36;31.40;79.30
40287;DHT22;25998;46.604;13.610;2022-07-15T10:59:54;30.80;80.20
40287;DHT22;25998;46.604;13.610;2022-07-15T11:03:06;30.40;81.80
40287;DHT22;25998;46.604;13.610;2022-07-15T11:06:18;30.30;81.10
40287;DHT22;25998;46.604;13.610;2022-07-15T11:09:50;30.10;80.40
40287;DHT22;25998;46.604;13.610;2022-07-15T11:13:03;29.80;82.40
40287;DHT22;25998;46.604;13.610;2022-07-15T11:16:17;29.60;81.60
40287;DHT22;25998;46.604;13.610;2022-07-15T11:19:28;29.30;82.80
40287;DHT22;25998;46.604;13.610;2022-07-15T11:22:48;29.20;82.80
40287;DHT22;25998;46.604;13.610;2022-07-15T11:25:59;29.10;83.30
40287;DHT22;25998;46.604;13.610;2022-07-15T11:29:10;29.20;84.30
40287;DHT22;25998;46.604;13.610;2022-07-15T11:32:22;29.10;84.00
40287;DHT22;25998;46.604;13.610;2022-07-15T11:35:43;29.10;84.20
40287;DHT22;25998;46.604;13.610;2022-07-15T11:38:57;29.00;85.10
40287;DHT22;25998;46.604;13.610;2022-07-15T11:42:17;28.80;84.70
40287;DHT22;25998;46.604;13.610;2022-07-15T11:45:51;28.80;86.40
40287;DHT22;25998;46.604;13.610;2022-07-15T11:49:02;28.80;87.00
40287;DHT22;25998;46.604;13.610;2022-07-15T11:52:27;28.60;90.10
40287;DHT22;25998;46.604;13.610;2022-07-15T11:55:56;28.10;91.00
40287;DHT22;25998;46.604;13.610;2022-07-15T11:59:07;27.40;92.70
40287;DHT22;25998;46.604;13.610;2022-07-15T12:02:18;27.20;94.00
40287;DHT22;25998;46.604;13.610;2022-07-15T12:05:29;26.80;92.90
40287;DHT22;25998;46.604;13.610;2022-07-15T12:08:44;26.50;94.10
40287;DHT22;25998;46.604;13.610;2022-07-15T12:12:02;26.30;95.10
40287;DHT22;25998;46.604;13.610;2022-07-15T12:15:13;26.00;94.10
40287;DHT22;25998;46.604;13.610;2022-07-15T12:18:24;26.10;95.40
40287;DHT22;25998;46.604;13.610;2022-07-15T12:21:38;26.20;93.20
40287;DHT22;25998;46.604;13.610;2022-07-15T12:24:50;26.20;94.90
40287;DHT22;25998;46.604;13.610;2022-07-15T12:28:02;25.50;94.60
40287;DHT22;25998;46.604;13.610;2022-07-15T12:31:24;26.20;94.80
40287;DHT22;25998;46.604;13.610;2022-07-15T12:34:51;26.80;93.80
40287;DHT22;25998;46.604;13.610;2022-07-15T12:38:03;27.40;93.40
40287;DHT22;25998;46.604;13.610;2022-07-15T12:41:24;26.90;93.90
40287;DHT22;25998;46.604;13.610;2022-07-15T12:44:35;27.00;93.60
40287;DHT22;25998;46.604;13.610;2022-07-15T12:48:08;27.00;92.90
40287;DHT22;25998;46.604;13.610;2022-07-15T12:51:24;26.70;92.10
40287;DHT22;25998;46.604;13.610;2022-07-15T12:54:36;26.60;92.50
40287;DHT22;25998;46.604;13.610;2022-07-15T12:57:47;26.60;92.20
40287;DHT22;25998;46.604;13.610;2022-07-15T13:01:10;26.60;92.40
40287;DHT22;25998;46.604;13.610;2022-07-15T13:04:21;26.50;92.10
40287;DHT22;25998;46.604;13.610;2022-07-15T13:07:32;26.40;92.70
40287;DHT22;25998;46.604;13.610;2022-07-15T13:10:45;26.30;93.40
40287;DHT22;25998;46.604;13.610;2022-07-15T13:13:57;26.30;92.60
40287;DHT22;25998;46.604;13.610;2022-07-15T13:17:09;26.00;92.70
40287;DHT22;25998;46.604;13.610;2022-07-15T13:20:20;25.90;93.60
40287;DHT22;25998;46.604;13.610;2022-07-15T13:23:31;25.70;95.20
40287;DHT22;25998;46.604;13.610;2022-07-15T13:26:42;25.50;96.60
40287;DHT22;25998;46.604;13.610;2022-07-15T13:29:55;25.30;97.40
40287;DHT22;25998;46.604;13.610;2022-07-15T13:33:06;25.10;98.30
40287;DHT22;25998;46.604;13.610;2022-07-15T13:36:17;24.80;98.90
40287;DHT22;25998;46.604;13.610;2022-07-15T13:39:28;24.70;99.20
40287;DHT22;25998;46.604;13.610;2022-07-15T13:42:40;24.30;99.90
40287;DHT22;25998;46.604;13.610;2022-07-15T13:45:51;24.30;99.90
40287;DHT22;25998;46.604;13.610;2022-07-15T13:49:02;24.40;99.90
40287;DHT22;25998;46.604;13.610;2022-07-15T13:52:13;24.40;99.90
40287;DHT22;25998;46.604;13.610;2022-07-15T13:55:25;24.70;99.90
40287;DHT22;25998;46.604;13.610;2022-07-15T13:58:36;24.80;99.90
40287;DHT22;25998;46.604;13.610;2022-07-15T14:01:47;25.00;99.90
40287;DHT22;25998;46.604;13.610;2022-07-15T14:04:58;25.10;99.90
40287;DHT22;25998;46.604;13.610;2022-07-15T14:08:09;25.50;99.90
40287;DHT22;25998;46.604;13.610;2022-07-15T14:11:20;25.90;99.90
40287;DHT22;25998;46.604;13.610;2022-07-15T14:14:31;26.30;99.90
40287;DHT22;25998;46.604;13.610;2022-07-15T14:17:44;26.40;99.90
40287;DHT22;25998;46.604;13.610;2022-07-15T14:21:01;26.10;99.80
40287;DHT22;25998;46.604;13.610;2022-07-15T14:24:12;25.80;99.10
40287;DHT22;25998;46.604;13.610;2022-07-15T14:27:23;25.60;99.90
40287;DHT22;25998;46.604;13.610;2022-07-15T14:30:34;25.20;99.90
40287;DHT22;25998;46.604;13.610;2022-07-15T14:33:49;25.00;99.90
40287;DHT22;25998;46.604;13.610;2022-07-15T14:37:00;24.50;99.90
40287;DHT22;25998;46.604;13.610;2022-07-15T14:40:13;24.20;99.90
40287;DHT22;25998;46.604;13.610;2022-07-15T14:43:30;24.60;99.90
40287;DHT22;25998;46.604;13.610;2022-07-15T14:46:46;24.80;99.90
40287;DHT22;25998;46.604;13.610;2022-07-15T14:49:57;25.10;99.90
40287;DHT22;25998;46.604;13.610;2022-07-15T14:53:10;24.90;99.90
40287;DHT22;25998;46.604;13.610;2022-07-15T14:56:21;25.30;99.30
40287;DHT22;25998;46.604;13.610;2022-07-15T14:59:32;25.40;99.90
40287;DHT22;25998;46.604;13.610;2022-07-15T15:02:50;25.50;99.40
40287;DHT22;25998;46.604;13.610;2022-07-15T15:06:05;25.40;97.50
40287;DHT22;25998;46.604;13.610;2022-07-15T15:09:19;25.10;97.70
40287;DHT22;25998;46.604;13.610;2022-07-15T15:12:32;24.90;97.50
40287;DHT22;25998;46.604;13.610;2022-07-15T15:15:43;24.70;98.20
40287;DHT22;25998;46.604;13.610;2022-07-15T15:18:54;24.30;97.50
40287;DHT22;25998;46.604;13.610;2022-07-15T15:22:06;24.00;98.10
40287;DHT22;25998;46.604;13.610;2022-07-15T15:25:17;22.00;99.90
40287;DHT22;25998;46.604;13.610;2022-07-15T15:28:49;21.70;99.90
40287;DHT22;25998;46.604;13.610;2022-07-15T15:32:00;21.80;99.90
40287;DHT22;25998;46.604;13.610;2022-07-15T15:35:11;22.00;99.90
40287;DHT22;25998;46.604;13.610;2022-07-15T15:38:22;21.80;99.90
40287;DHT22;25998;46.604;13.610;2022-07-15T15:41:33;21.60;99.90
40287;DHT22;25998;46.604;13.610;2022-07-15T15:44:43;21.60;99.90
40287;DHT22;25998;46.604;13.610;2022-07-15T15:47:54;21.30;99.90
40287;DHT22;25998;46.604;13.610;2022-07-15T15:51:05;21.50;99.90
40287;DHT22;25998;46.604;13.610;2022-07-15T15:54:18;21.60;99.90
40287;DHT22;25998;46.604;13.610;2022-07-15T15:57:29;21.50;99.90
40287;DHT22;25998;46.604;13.610;2022-07-15T16:00:40;21.50;99.90
40287;DHT22;25998;46.604;13.610;2022-07-15T16:03:51;21.60;99.90
40287;DHT22;25998;46.604;13.610;2022-07-15T16:07:02;21.60;99.90
40287;DHT22;25998;46.604;13.610;2022-07-15T16:10:13;21.70;99.90
40287;DHT22;25998;46.604;13.610;2022-07-15T16:13:24;21.90;99.90
40287;DHT22;25998;46.604;13.610;2022-07-15T16:16:35;21.80;99.90
40287;DHT22;25998;46.604;13.610;2022-07-15T16:19:46;21.80;99.90
40287;DHT22;25998;46.604;13.610;2022-07-15T16:22:57;21.50;99.90
40287;DHT22;25998;46.604;13.610;2022-07-15T16:26:09;21.20;99.90
40287;DHT22;25998;46.604;13.610;2022-07-15T16:29:20;20.90;99.90
40287;DHT22;25998;46.604;13.610;2022-07-15T16:32:31;21.00;99.90
40287;DHT22;25998;46.604;13.610;2022-07-15T16:35:42;21.20;99.90
40287;DHT22;25998;46.604;13.610;2022-07-15T16:38:53;21.40;99.90
40287;DHT22;25998;46.604;13.610;2022-07-15T16:42:04;21.60;99.90
40287;DHT22;25998;46.604;13.610;2022-07-15T16:45:15;21.70;99.90
40287;DHT22;25998;46.604;13.610;2022-07-15T16:48:26;21.70;99.90
40287;DHT22;25998;46.604;13.610;2022-07-15T16:51:37;21.50;99.90
40287;DHT22;25998;46.604;13.610;2022-07-15T16:54:48;21.30;99.90
40287;DHT22;25998;46.604;13.610;2022-07-15T16:57:59;21.30;99.90
40287;DHT22;25998;46.604;13.610;2022-07-15T17:01:10;21.50;99.90
40287;DHT22;25998;46.604;13.610;2022-07-15T17:04:21;21.30;99.90
40287;DHT22;25998;46.604;13.610;2022-07-15T17:07:33;21.20;99.90
40287;DHT22;25998;46.604;13.610;2022-07-15T17:10:44;21.10;99.90
40287;DHT22;25998;46.604;13.610;2022-07-15T17:13:55;20.70;99.90
40287;DHT22;25998;46.604;13.610;2022-07-15T17:17:06;20.90;99.90
40287;DHT22;25998;46.604;13.610;2022-07-15T17:20:17;21.10;99.90
40287;DHT22;25998;46.604;13.610;2022-07-15T17:23:29;21.10;99.90
40287;DHT22;25998;46.604;13.610;2022-07-15T17:26:40;21.10;99.90
40287;DHT22;25998;46.604;13.610;2022-07-15T17:29:51;21.20;99.90
40287;DHT22;25998;46.604;13.610;2022-07-15T17:33:02;21.10;99.90
40287;DHT22;25998;46.604;13.610;2022-07-15T17:36:13;20.90;99.90
40287;DHT22;25998;46.604;13.610;2022-07-15T17:39:24;21.10;99.90
40287;DHT22;25998;46.604;13.610;2022-07-15T17:42:35;21.10;99.90
40287;DHT22;25998;46.604;13.610;2022-07-15T17:45:46;21.00;99.90
40287;DHT22;25998;46.604;13.610;2022-07-15T17:48:57;21.10;99.90
40287;DHT22;25998;46.604;13.610;2022-07-15T17:52:07;21.20;99.90
40287;DHT22;25998;46.604;13.610;2022-07-15T17:55:18;21.10;99.90
40287;DHT22;25998;46.604;13.610;2022-07-15T17:58:29;21.10;99.90
40287;DHT22;25998;46.604;13.610;2022-07-15T18:01:40;21.20;99.90
40287;DHT22;25998;46.604;13.610;2022-07-15T18:04:51;21.10;99.90
40287;DHT22;25998;46.604;13.610;2022-07-15T18:08:02;21.10;99.90
40287;DHT22;25998;46.604;13.610;2022-07-15T18:11:15;21.00;99.90
40287;DHT22;25998;46.604;13.610;2022-07-15T18:14:29;21.00;99.90
40287;DHT22;25998;46.604;13.610;2022-07-15T18:17:40;21.20;99.90
40287;DHT22;25998;46.604;13.610;2022-07-15T18:20:50;21.20;99.90
40287;DHT22;25998;46.604;13.610;2022-07-15T18:24:02;21.30;99.90
40287;DHT22;25998;46.604;13.610;2022-07-15T18:27:13;21.10;99.90
40287;DHT22;25998;46.604;13.610;2022-07-15T18:30:24;21.00;99.90
40287;DHT22;25998;46.604;13.610;2022-07-15T18:33:35;21.20;99.90
40287;DHT22;25998;46.604;13.610;2022-07-15T18:36:46;21.00;99.90
40287;DHT22;25998;46.604;13.610;2022-07-15T18:39:57;20.90;99.90
40287;DHT22;25998;46.604;13.610;2022-07-15T18:43:07;21.00;99.90
40287;DHT22;25998;46.604;13.610;2022-07-15T18:46:19;21.10;99.90
40287;DHT22;25998;46.604;13.610;2022-07-15T18:49:29;21.10;99.90
40287;DHT22;25998;46.604;13.610;2022-07-15T18:52:40;21.30;99.90
40287;DHT22;25998;46.604;13.610;2022-07-15T18:55:51;21.20;99.90
40287;DHT22;25998;46.604;13.610;2022-07-15T18:59:02;21.10;99.90
40287;DHT22;25998;46.604;13.610;2022-07-15T19:02:13;21.00;99.90
40287;DHT22;25998;46.604;13.610;2022-07-15T19:05:24;21.10;99.90
40287;DHT22;25998;46.604;13.610;2022-07-15T19:08:35;21.10;99.90
40287;DHT22;25998;46.604;13.610;2022-07-15T19:11:46;21.20;99.90
40287;DHT22;25998;46.604;13.610;2022-07-15T19:14:58;21.20;99.90
40287;DHT22;25998;46.604;13.610;2022-07-15T19:18:09;21.20;99.90
40287;DHT22;25998;46.604;13.610;2022-07-15T19:21:19;21.00;99.90
40287;DHT22;25998;46.604;13.610;2022-07-15T19:24:30;20.70;99.90
40287;DHT22;25998;46.604;13.610;2022-07-15T19:27:41;20.50;99.90
40287;DHT22;25998;46.604;13.610;2022-07-15T19:30:52;20.70;99.90
40287;DHT22;25998;46.604;13.610;2022-07-15T19:34:06;20.90;99.90
40287;DHT22;25998;46.604;13.610;2022-07-15T19:37:16;20.90;99.90
40287;DHT22;25998;46.604;13.610;2022-07-15T19:40:27;21.10;99.90
40287;DHT22;25998;46.604;13.610;2022-07-15T19:43:38;21.00;99.90
40287;DHT22;25998;46.604;13.610;2022-07-15T19:46:54;20.90;99.90
40287;DHT22;25998;46.604;13.610;2022-07-15T19:50:06;20.70;99.90
40287;DHT22;25998;46.604;13.610;2022-07-15T19:53:17;20.60;99.90
40287;DHT22;25998;46.604;13.610;2022-07-15T19:56:28;20.80;99.90
40287;DHT22;25998;46.604;13.610;2022-07-15T19:59:41;20.90;99.90
40287;DHT22;25998;46.604;13.610;2022-07-15T20:03:11;20.80;99.90
40287;DHT22;25998;46.604;13.610;2022-07-15T20:06:22;20.60;99.90